Old Hickory Observed Data For Previous 48 Hours

Caption
Day and Hour Reservoir Elevation (behind dam)* Tailwater Elevation (below dam)* Average Hourly Discharge*
6/20/2018 1 AM CDT 444.62 386.98 5,700
6/20/2018 2 AM CDT 444.64 386.90 5,700
6/20/2018 3 AM CDT 444.68 386.92 5,700
6/20/2018 4 AM CDT 444.69 386.89 5,700
6/20/2018 5 AM CDT 444.64 386.80 5,700
6/20/2018 6 AM CDT 444.62 386.83 5,700
6/20/2018 7 AM CDT 444.57 386.98 5,700
6/20/2018 8 AM CDT 444.54 387.04 5,700
6/20/2018 9 AM CDT 444.51 387.10 5,700
6/20/2018 10 AM CDT 444.45 388.63 11,800
6/20/2018 11 AM CDT 444.40 390.79 18,600
6/20/2018 12 PM CDT 444.43 391.90 18,900
6/20/2018 1 PM CDT 444.32 392.16 19,200
6/20/2018 2 PM CDT 444.22 392.42 19,200
6/20/2018 3 PM CDT 444.13 392.60 19,200
6/20/2018 4 PM CDT 444.04 392.76 19,200
6/20/2018 5 PM CDT 444.06 391.37 12,600
6/20/2018 6 PM CDT 444.15 390.34 6,100
6/20/2018 7 PM CDT 444.20 388.15 5,800
6/20/2018 8 PM CDT 444.36 387.65 5,800
6/20/2018 9 PM CDT 444.40 387.55 5,800
6/20/2018 10 PM CDT 444.56 387.40 5,800
6/20/2018 11 PM CDT 444.61 387.50 5,800
6/21/2018 12 AM CDT 444.65 387.45 5,800
6/21/2018 1 AM CDT 444.66 387.37 5,700
6/21/2018 2 AM CDT 444.68 387.22 5,700
6/21/2018 3 AM CDT 444.67 387.00 5,700
6/21/2018 4 AM CDT 444.65 386.78 5,700
6/21/2018 5 AM CDT 444.65 386.60 5,700
6/21/2018 6 AM CDT 444.65 386.55 5,700
6/21/2018 7 AM CDT 444.62 386.71 5,700
6/21/2018 8 AM CDT 444.57 387.00 5,700
6/21/2018 9 AM CDT 444.52 386.88 5,700
6/21/2018 10 AM CDT 444.58 386.90 5,700
6/21/2018 11 AM CDT 444.60 388.24 11,600
6/21/2018 12 PM CDT 444.55 390.81 18,300
6/21/2018 1 PM CDT 444.52 391.62 18,600
6/21/2018 2 PM CDT 444.42 391.96 18,900
6/21/2018 3 PM CDT 444.30 392.16 19,200
6/21/2018 4 PM CDT 444.21 392.32 19,200
6/21/2018 5 PM CDT 444.13 392.54 19,200
6/21/2018 6 PM CDT 444.25 391.10 12,400
6/21/2018 7 PM CDT 444.37 388.35 5,800
6/21/2018 8 PM CDT 444.49 387.85 5,700
6/21/2018 9 PM CDT 444.61 387.80 5,700
6/21/2018 10 PM CDT 444.65 387.50 5,700
6/21/2018 11 PM CDT 444.70 387.25 5,700
6/22/2018 12 AM CDT 444.80 387.00 5,700

Elevations are in feet above sea level. Discharges are in cubic feet per second and are reported at the end of the hour.